Αρχική σελίδα
METAR-TAF:

METAR-TAF

Αεροδρόμια :

Pointe-Noire, Κονγκό

γεωγραφικό πλάτος: 04-49S, γεωγραφικό μήκος: 011-54E, υψόμετρο: 17 μ

Παρών καιρός

Η αναφορά έγινε 1 ώρα και 7 λεπτά πριν, στις 23:00 UTC
Άνεμος 4 kt από Ν/NA
Θερμοκρασία 22°C
Υγρασία 94%
Πίεση 1017 hPa
Ορατότητα: 8000 μ
Διάσπαρτα νέφη σε ύψος 1000 πόδια
Αρκετά νέφη σε ύψος 2300 πόδια

METAR: FCPP 162300Z 16004KT 8000 SCT010 BKN023 22/21 Q1017 NOSIG

Χρόνος: 01:07 (00:07 UTC)

Πρόγνωση Καιρού

Η αναφορά έγινε 1 ώρα και 7 λεπτά πριν, στις 23:00 UTC
Η πρόγνωση ισχύει από τις 17 στις 00 UTC έως τις 17 στις 24 UTC
Άνεμος 4 kt από Ν
Ορατότητα: 8000 μ
Διάσπαρτα νέφη σε ύψος 1000 πόδια
Αρκετά νέφη σε ύψος 2000 πόδια
Πιθανότητα 30%
από 17 στις 05 UTC έως τις 17 στις 07 UTC
Ορατότητα: 4000 μ
Αχλής

TAF: FCPP 162300Z 1700/1724 18004KT 8000 SCT010 BKN020 PROB30 1705/1707 4000 BR

Μετεωρολογικές αναφορές και προγνώσεις για περισσότερα από 4000 αεροδρόμια (δελτία METAR και TAF).

Οι διαθέσιμοι σταθμοί απεικονίζονται στο χάρτη με κίτρινες και κόκκινες κουκκίδες.

Μετακινήστε το ποντίκι πάνω από τις κουκκίδες για να δείτε το όνομα του σταθμού.

Στη συνέχεια, κάντε κλικ για να δείτε τις μετεωρολογικές αναφορές και τις προγνώσεις καιρού.

Για να αλλάξετε το χάρτη: κάντε κλικ στα πράσινα κουμπιά με τον μαύρο σταυρό για να ζουμάρετε, στο πράσινο κουμπί με την παύλα για να αφαιρέσετε το ζουμ ή στα πράσινα βέλη για να αντιπαραβάλλετε χάρτες.


METAR-TAF: